Time;durP1;ratioP1;P1;durP2;ratioP2;P2;SDS_P1;SDS_P2;PMS_P1;PMS_P2;Temp;Humidity;BMP_temperature;BMP_pressure;BME280_temperature;BME280_humidity;BME280_pressure;Samples;Min_cycle;Max_cycle;Signal;HPM_P1;HPM_P2
2023/07/19 00:01:45;;;;;;;3.78;2.60;;;;;;;14.40;nan;100660.56;4800942;29;20043;-83
2023/07/19 00:04:12;;;;;;;3.85;2.28;;;;;;;14.36;nan;100658.91;4804084;29;20043;-83
2023/07/19 00:06:39;;;;;;;3.50;2.47;;;;;;;14.32;nan;100670.59;4801851;29;20038;-82
2023/07/19 00:09:06;;;;;;;3.65;2.10;;;;;;;14.30;nan;100664.47;4798243;29;20050;-82
2023/07/19 00:11:34;;;;;;;3.88;2.10;;;;;;;14.26;nan;100666.34;4813116;29;20107;-83
2023/07/19 00:14:05;;;;;;;3.22;2.58;;;;;;;14.28;nan;100668.94;4795647;29;20049;-82
2023/07/19 00:16:33;;;;;;;2.60;2.00;;;;;;;14.22;nan;100664.75;4800457;29;20039;-82
2023/07/19 00:19:00;;;;;;;2.78;2.42;;;;;;;14.17;nan;100661.38;4784569;29;20447;-82
2023/07/19 00:21:44;;;;;;;3.42;2.50;;;;;;;14.19;nan;100658.66;4810843;29;20058;-83
2023/07/19 00:24:11;;;;;;;2.83;2.38;;;;;;;14.11;nan;100658.06;4824596;29;20051;-82
2023/07/19 00:26:38;;;;;;;2.45;2.25;;;;;;;14.05;nan;100649.41;4828693;29;20539;-82
2023/07/19 00:29:05;;;;;;;3.78;2.30;;;;;;;14.03;nan;100650.34;4800116;29;20039;-82
2023/07/19 00:31:32;;;;;;;3.58;2.45;;;;;;;14.02;nan;100656.59;4804795;29;20041;-82
2023/07/19 00:33:59;;;;;;;2.65;2.20;;;;;;;13.96;nan;100643.53;4800509;29;20050;-82
2023/07/19 00:36:26;;;;;;;3.35;2.45;;;;;;;13.85;nan;100640.38;4808498;29;20047;-82
2023/07/19 00:38:53;;;;;;;3.10;2.60;;;;;;;13.75;nan;100634.50;4802904;29;20050;-83
2023/07/19 00:41:20;;;;;;;3.63;2.40;;;;;;;13.71;nan;100632.88;4783920;29;20177;-82
2023/07/19 00:43:48;;;;;;;3.05;2.40;;;;;;;13.63;nan;100619.88;4801565;29;20047;-82
2023/07/19 00:46:15;;;;;;;3.03;2.30;;;;;;;13.57;nan;100628.03;4818497;29;20049;-82
2023/07/19 00:48:42;;;;;;;3.75;2.70;;;;;;;13.49;nan;100625.63;4800336;29;20042;-82
2023/07/19 00:51:09;;;;;;;3.50;2.50;;;;;;;13.46;nan;100627.53;4800789;29;20050;-83
2023/07/19 00:53:38;;;;;;;4.38;2.95;;;;;;;13.40;nan;100625.94;4813596;29;20050;-83
2023/07/19 00:56:07;;;;;;;3.65;2.40;;;;;;;13.34;nan;100618.16;4782060;29;20542;-83
2023/07/19 00:58:35;;;;;;;2.67;2.15;;;;;;;13.29;nan;100612.16;4786550;29;20041;-83
2023/07/19 01:01:03;;;;;;;3.42;2.42;;;;;;;13.26;nan;100609.56;4810699;29;20042;-83
2023/07/19 01:03:30;;;;;;;4.25;2.60;;;;;;;13.29;nan;100603.31;4799190;29;20043;-83
2023/07/19 01:05:58;;;;;;;3.08;2.47;;;;;;;13.30;nan;100599.75;4802711;29;20047;-81
2023/07/19 01:08:26;;;;;;;4.05;2.78;;;;;;;13.20;nan;100596.50;4817363;29;20053;-82
2023/07/19 01:10:53;;;;;;;2.92;2.60;;;;;;;13.15;nan;100593.97;4811784;29;20392;-83
2023/07/19 01:13:21;;;;;;;3.25;2.60;;;;;;;13.13;nan;100597.59;4828396;29;20463;-83
2023/07/19 01:15:48;;;;;;;5.13;3.10;;;;;;;13.12;nan;100596.75;4793691;29;20545;-80
2023/07/19 01:18:18;;;;;;;3.75;2.72;;;;;;;13.07;nan;100592.50;4791772;29;20091;-79
2023/07/19 01:20:45;;;;;;;3.50;2.50;;;;;;;12.96;nan;100593.69;4817748;29;20498;-79
2023/07/19 01:23:12;;;;;;;2.70;2.40;;;;;;;13.00;nan;100590.94;4837102;29;20118;-80
2023/07/19 01:25:39;;;;;;;3.83;2.90;;;;;;;13.02;nan;100594.41;4827899;29;20161;-81
2023/07/19 01:28:06;;;;;;;4.30;2.65;;;;;;;13.00;nan;100586.50;4810193;29;20126;-81
2023/07/19 01:30:33;;;;;;;3.33;2.60;;;;;;;13.11;nan;100581.72;4805458;29;20130;-79
2023/07/19 01:33:01;;;;;;;4.00;3.15;;;;;;;13.09;nan;100580.91;4836612;29;20172;-79
2023/07/19 01:35:28;;;;;;;3.63;2.50;;;;;;;13.09;nan;100570.28;4801964;29;20123;-80
2023/07/19 01:37:55;;;;;;;3.33;2.60;;;;;;;13.16;nan;100578.94;4832403;29;20118;-80
2023/07/19 01:40:22;;;;;;;3.17;2.38;;;;;;;13.20;nan;100577.94;4806215;29;20090;-80
2023/07/19 01:42:49;;;;;;;2.75;2.45;;;;;;;13.19;nan;100582.38;4839673;29;20606;-79
2023/07/19 01:45:16;;;;;;;2.85;2.30;;;;;;;13.17;nan;100578.00;4831197;29;20113;-80
2023/07/19 01:47:43;;;;;;;3.85;2.72;;;;;;;13.17;nan;100576.22;4807426;29;20455;-80
2023/07/19 01:50:10;;;;;;;3.03;2.53;;;;;;;13.26;nan;100583.03;4835772;29;20133;-80
2023/07/19 01:52:38;;;;;;;3.28;2.60;;;;;;;13.25;nan;100573.34;4805615;29;20095;-80
2023/07/19 01:55:06;;;;;;;3.03;2.53;;;;;;;13.14;nan;100575.47;4808887;29;20086;-79
2023/07/19 01:57:33;;;;;;;2.85;2.53;;;;;;;13.14;nan;100572.81;4806539;29;20045;-79
2023/07/19 02:00:00;;;;;;;3.65;2.95;;;;;;;13.15;nan;100574.53;4807768;29;20121;-80
2023/07/19 02:02:27;;;;;;;3.20;2.90;;;;;;;13.18;nan;100569.13;4834061;29;20049;-80
2023/07/19 02:04:54;;;;;;;3.10;2.80;;;;;;;13.16;nan;100568.31;4817883;29;20095;-80
2023/07/19 02:07:22;;;;;;;4.15;3.08;;;;;;;13.12;nan;100570.22;4831335;29;20049;-79
2023/07/19 02:09:48;;;;;;;3.72;2.83;;;;;;;13.21;nan;100567.28;4807328;29;20182;-80
2023/07/19 02:12:15;;;;;;;3.03;2.40;;;;;;;13.26;nan;100564.47;4803382;29;20038;-79
2023/07/19 02:14:42;;;;;;;3.03;2.70;;;;;;;13.24;nan;100571.63;4825332;29;20126;-80
2023/07/19 02:17:10;;;;;;;3.30;2.65;;;;;;;13.15;nan;100561.28;4804059;29;20031;-79
2023/07/19 02:19:38;;;;;;;3.40;2.60;;;;;;;13.18;nan;100564.69;4815067;29;20061;-80
2023/07/19 02:22:05;;;;;;;3.67;2.50;;;;;;;13.27;nan;100552.06;4806410;29;20471;-79
2023/07/19 02:24:32;;;;;;;3.75;2.33;;;;;;;13.27;nan;100563.56;4810101;29;20048;-80
2023/07/19 02:26:59;;;;;;;3.28;2.83;;;;;;;13.21;nan;100559.34;4808199;29;20129;-80
2023/07/19 02:29:26;;;;;;;4.28;2.88;;;;;;;13.28;nan;100559.97;4808870;29;20589;-80
2023/07/19 02:31:54;;;;;;;3.38;2.65;;;;;;;13.12;nan;100561.41;4789649;29;20035;-79
2023/07/19 02:34:21;;;;;;;3.20;2.90;;;;;;;13.14;nan;100559.56;4804960;29;20039;-80
2023/07/19 02:36:49;;;;;;;3.60;2.90;;;;;;;13.23;nan;100551.31;4817038;29;20674;-79
2023/07/19 02:39:16;;;;;;;5.00;3.20;;;;;;;13.16;nan;100552.41;4795798;29;20051;-80
2023/07/19 02:41:43;;;;;;;4.85;3.38;;;;;;;13.18;nan;100548.78;4822145;29;20031;-79
2023/07/19 02:44:10;;;;;;;2.88;2.30;;;;;;;13.29;nan;100550.25;4833666;29;21892;-78
2023/07/19 02:46:37;;;;;;;2.72;2.53;;;;;;;13.30;nan;100558.16;4815186;29;20150;-80
2023/07/19 02:49:04;;;;;;;4.55;2.55;;;;;;;13.26;nan;100548.56;4819259;29;20040;-79
2023/07/19 02:51:31;;;;;;;3.03;2.60;;;;;;;13.27;nan;100558.25;4814231;29;20130;-80
2023/07/19 02:53:58;;;;;;;3.25;2.30;;;;;;;13.25;nan;100554.78;4818347;29;20411;-78
2023/07/19 02:56:25;;;;;;;4.68;2.80;;;;;;;13.22;nan;100555.75;4835654;29;20641;-80
2023/07/19 02:58:52;;;;;;;2.85;2.55;;;;;;;13.19;nan;100549.63;4809975;29;20091;-79
2023/07/19 03:01:19;;;;;;;5.15;3.00;;;;;;;13.11;nan;100541.94;4822257;29;20285;-80
2023/07/19 03:03:46;;;;;;;3.70;2.60;;;;;;;13.14;nan;100538.34;4795945;29;20086;-79
2023/07/19 03:06:13;;;;;;;4.28;2.67;;;;;;;13.35;nan;100534.97;4822710;29;20142;-80
2023/07/19 03:08:40;;;;;;;5.60;3.00;;;;;;;13.27;nan;100530.84;4837641;29;20154;-79
2023/07/19 03:11:09;;;;;;;4.22;2.70;;;;;;;13.28;nan;100536.09;4812064;29;20125;-80
2023/07/19 03:13:36;;;;;;;5.45;3.20;;;;;;;13.22;nan;100523.94;4793707;29;20913;-80
2023/07/19 03:16:05;;;;;;;3.97;2.80;;;;;;;13.22;nan;100526.59;4794904;29;20106;-80
2023/07/19 03:18:32;;;;;;;3.72;2.80;;;;;;;13.19;nan;100523.13;4812153;29;20135;-78
2023/07/19 03:21:00;;;;;;;4.20;2.45;;;;;;;13.25;nan;100530.91;4832052;29;20044;-78
2023/07/19 03:23:30;;;;;;;4.50;2.60;;;;;;;13.13;nan;100536.59;4790510;29;20050;-78
2023/07/19 03:25:58;;;;;;;4.20;2.50;;;;;;;13.08;nan;100528.78;4792638;29;20611;-79
2023/07/19 03:28:27;;;;;;;6.07;3.60;;;;;;;13.10;nan;100532.25;4811416;29;20039;-78
2023/07/19 03:30:56;;;;;;;3.95;2.92;;;;;;;13.18;nan;100532.84;4815346;29;20295;-79
2023/07/19 03:33:25;;;;;;;4.88;2.65;;;;;;;13.26;nan;100527.34;4810520;29;20116;-79
2023/07/19 03:35:52;;;;;;;3.70;2.90;;;;;;;13.28;nan;100532.59;4833377;29;20049;-79
2023/07/19 03:38:19;;;;;;;3.55;2.80;;;;;;;13.26;nan;100532.63;4807594;29;20696;-79
2023/07/19 03:40:46;;;;;;;3.88;2.97;;;;;;;13.32;nan;100531.56;4815592;29;20050;-79
2023/07/19 03:43:13;;;;;;;3.70;2.65;;;;;;;13.32;nan;100528.91;4832978;29;20046;-79
2023/07/19 03:45:40;;;;;;;3.30;3.00;;;;;;;13.27;nan;100529.06;4830133;29;20110;-79
2023/07/19 03:48:07;;;;;;;4.80;3.10;;;;;;;13.26;nan;100529.13;4824276;29;20555;-79
2023/07/19 03:50:34;;;;;;;3.05;2.75;;;;;;;13.28;nan;100536.09;4811451;29;20587;-79
2023/07/19 03:53:01;;;;;;;3.75;3.15;;;;;;;13.33;nan;100530.66;4834764;29;20157;-79
2023/07/19 03:55:28;;;;;;;3.30;2.75;;;;;;;13.41;nan;100529.47;4840486;29;20478;-79
2023/07/19 03:57:55;;;;;;;6.40;3.45;;;;;;;13.46;nan;100538.16;4836930;29;20046;-79
2023/07/19 04:00:22;;;;;;;8.50;3.40;;;;;;;13.51;nan;100530.88;4817186;29;20042;-79
2023/07/19 04:02:50;;;;;;;6.32;3.03;;;;;;;13.61;nan;100531.44;4837011;29;20098;-79
2023/07/19 04:05:17;;;;;;;6.38;3.45;;;;;;;13.66;nan;100528.63;4820489;29;20103;-79
2023/07/19 04:07:44;;;;;;;5.13;3.85;;;;;;;13.72;nan;100528.41;4835616;29;20090;-79
2023/07/19 04:10:11;;;;;;;9.25;4.43;;;;;;;13.70;nan;100514.31;4826923;29;20133;-79
2023/07/19 04:12:38;;;;;;;10.57;4.13;;;;;;;13.79;nan;100520.19;4819584;29;20111;-79
2023/07/19 04:15:05;;;;;;;16.02;4.55;;;;;;;13.88;nan;100513.66;4834959;29;20045;-79
2023/07/19 04:17:33;;;;;;;20.40;5.15;;;;;;;13.89;nan;100520.72;4812463;29;20045;-79
2023/07/19 04:20:00;;;;;;;12.23;3.95;;;;;;;13.87;nan;100527.84;4828965;29;20053;-80
2023/07/19 04:22:27;;;;;;;9.00;3.63;;;;;;;13.93;nan;100524.09;4806972;29;20127;-80
2023/07/19 04:24:54;;;;;;;6.60;3.28;;;;;;;13.96;nan;100519.56;4808721;29;20150;-80
2023/07/19 04:27:21;;;;;;;4.80;3.03;;;;;;;14.06;nan;100520.09;4833763;29;20110;-80
2023/07/19 04:29:48;;;;;;;4.57;3.22;;;;;;;14.14;nan;100518.03;4810469;29;20138;-79
2023/07/19 04:32:18;;;;;;;5.30;2.85;;;;;;;14.18;nan;100516.97;4820794;29;20264;-80
2023/07/19 04:34:45;;;;;;;4.25;2.58;;;;;;;14.22;nan;100515.94;4794038;29;20041;-79
2023/07/19 04:37:12;;;;;;;4.65;3.30;;;;;;;14.30;nan;100513.84;4827770;29;20126;-79
2023/07/19 04:39:39;;;;;;;3.40;2.92;;;;;;;14.39;nan;100511.78;4811917;29;20099;-79
2023/07/19 04:42:06;;;;;;;4.03;2.92;;;;;;;14.44;nan;100510.66;4836914;29;20572;-79
2023/07/19 04:44:33;;;;;;;3.67;2.80;;;;;;;14.59;nan;100514.53;4810592;29;20465;-79
2023/07/19 04:47:00;;;;;;;3.75;2.80;;;;;;;14.63;nan;100509.06;4807499;29;20123;-78
2023/07/19 04:49:27;;;;;;;3.80;3.00;;;;;;;14.73;nan;100522.84;4772943;29;20465;-79
2023/07/19 04:51:54;;;;;;;4.68;2.92;;;;;;;14.92;nan;100522.97;4795637;29;20043;-79
2023/07/19 04:54:21;;;;;;;5.05;2.97;;;;;;;15.00;nan;100531.50;4836528;29;20106;-79
2023/07/19 04:56:49;;;;;;;3.33;2.70;;;;;;;15.07;nan;100517.03;4820956;29;20315;-78
2023/07/19 04:59:16;;;;;;;3.55;3.25;;;;;;;15.14;nan;100515.84;4813774;29;20060;-79
2023/07/19 05:01:43;;;;;;;5.20;3.40;;;;;;;15.45;nan;100519.88;4815386;29;20090;-78
2023/07/19 05:04:10;;;;;;;3.53;2.65;;;;;;;15.37;nan;100512.19;4819855;29;20039;-78
2023/07/19 05:06:37;;;;;;;4.22;2.97;;;;;;;15.42;nan;100493.38;4805566;29;20043;-78
2023/07/19 05:09:06;;;;;;;4.80;4.07;;;;;;;15.67;nan;100509.19;4824983;29;20503;-78
2023/07/19 05:11:33;;;;;;;4.35;3.95;;;;;;;15.65;nan;100511.06;4801677;29;20049;-78
2023/07/19 05:14:00;;;;;;;4.78;2.97;;;;;;;15.74;nan;100505.34;4830743;29;20061;-78
2023/07/19 05:16:27;;;;;;;6.30;3.70;;;;;;;15.57;nan;100502.50;4802351;29;20536;-78
2023/07/19 05:18:54;;;;;;;5.43;3.28;;;;;;;15.54;nan;100511.47;4826683;29;20031;-78
2023/07/19 05:21:22;;;;;;;3.70;3.30;;;;;;;15.68;nan;100514.44;4817702;29;20031;-77
2023/07/19 05:23:49;;;;;;;4.75;3.35;;;;;;;15.88;nan;100512.69;4814752;29;20772;-78
2023/07/19 05:26:16;;;;;;;3.60;3.30;;;;;;;15.99;nan;100513.97;4801928;29;20054;-78
2023/07/19 05:28:43;;;;;;;43.05;9.48;;;;;;;15.97;nan;100502.47;4814617;29;20039;-78
2023/07/19 05:31:10;;;;;;;6.50;4.10;;;;;;;15.99;nan;100510.44;4814931;29;20034;-78
2023/07/19 05:33:37;;;;;;;5.03;3.50;;;;;;;16.06;nan;100514.56;4830439;29;20041;-78
2023/07/19 05:36:04;;;;;;;26.98;7.72;;;;;;;16.14;nan;100515.03;4809049;29;20121;-79
2023/07/19 05:38:32;;;;;;;6.68;4.03;;;;;;;16.31;nan;100517.81;4835815;29;20041;-78
2023/07/19 05:41:00;;;;;;;6.20;4.05;;;;;;;16.41;nan;100514.72;4808100;29;20102;-77
2023/07/19 05:43:28;;;;;;;4.57;4.07;;;;;;;16.49;nan;100512.56;4839397;29;20137;-79
2023/07/19 05:46:08;;;;;;;5.22;3.33;;;;;;;16.60;nan;100524.44;4833400;29;20094;-78
2023/07/19 05:48:35;;;;;;;4.45;3.40;;;;;;;16.70;nan;100519.56;4831439;29;20113;-79
2023/07/19 05:51:03;;;;;;;4.07;3.67;;;;;;;16.81;nan;100509.22;4840489;29;20141;-79
2023/07/19 05:53:30;;;;;;;6.25;3.63;;;;;;;16.89;nan;100515.06;4826288;29;20106;-78
2023/07/19 05:55:57;;;;;;;5.53;3.90;;;;;;;16.95;nan;100511.22;4832055;29;20156;-78
2023/07/19 05:58:27;;;;;;;4.15;3.75;;;;;;;17.05;nan;100506.31;4836762;29;20161;-78
2023/07/19 06:00:54;;;;;;;4.68;3.40;;;;;;;17.15;nan;100510.22;4828455;29;20042;-78
2023/07/19 06:03:21;;;;;;;6.30;4.32;;;;;;;17.19;nan;100503.81;4812160;29;20122;-78
2023/07/19 06:05:48;;;;;;;5.30;4.20;;;;;;;17.25;nan;100499.97;4821829;29;20110;-79
2023/07/19 06:08:15;;;;;;;4.32;3.92;;;;;;;17.33;nan;100509.34;4833730;29;20110;-79
2023/07/19 06:10:51;;;;;;;6.13;4.47;;;;;;;17.35;nan;100506.56;4819063;29;20095;-78
2023/07/19 06:13:18;;;;;;;6.25;4.38;;;;;;;17.49;nan;100511.19;4805068;29;20047;-78
2023/07/19 06:15:45;;;;;;;7.63;4.97;;;;;;;17.44;nan;100498.09;4802056;29;20039;-80
2023/07/19 06:18:13;;;;;;;4.95;4.55;;;;;;;17.48;nan;100501.47;4816004;29;20503;-81
2023/07/19 06:20:40;;;;;;;4.20;3.80;;;;;;;17.46;nan;100496.19;4826097;29;20408;-81
2023/07/19 06:23:07;;;;;;;4.68;3.90;;;;;;;17.53;nan;100504.78;4815923;29;20057;-81
2023/07/19 06:25:34;;;;;;;5.25;4.45;;;;;;;17.62;nan;100499.81;4805379;29;20114;-81
2023/07/19 06:28:02;;;;;;;3.90;3.30;;;;;;;17.63;nan;100504.19;4784253;29;20045;-82
2023/07/19 06:30:31;;;;;;;4.10;3.58;;;;;;;17.67;nan;100496.91;4817963;29;20040;-81
2023/07/19 06:32:58;;;;;;;4.28;3.25;;;;;;;17.68;nan;100504.84;4808820;29;20427;-80
2023/07/19 06:35:25;;;;;;;5.35;3.20;;;;;;;17.72;nan;100509.09;4797504;29;20039;-81
2023/07/19 06:37:52;;;;;;;10.38;4.68;;;;;;;17.77;nan;100497.31;4792421;29;20033;-81
2023/07/19 06:40:19;;;;;;;5.05;3.47;;;;;;;17.80;nan;100497.16;4798478;29;20035;-82
2023/07/19 06:42:46;;;;;;;5.70;3.20;;;;;;;17.88;nan;100492.25;4806452;29;20510;-81
2023/07/19 06:45:13;;;;;;;4.35;3.88;;;;;;;17.94;nan;100491.94;4797944;29;20045;-80
2023/07/19 06:47:40;;;;;;;4.47;3.33;;;;;;;18.06;nan;100490.41;4794718;29;20047;-80
2023/07/19 06:50:08;;;;;;;4.28;3.13;;;;;;;18.14;nan;100494.38;4811492;29;20050;-81
2023/07/19 06:52:35;;;;;;;3.63;3.30;;;;;;;18.33;nan;100496.03;4799891;29;20402;-81
2023/07/19 06:55:03;;;;;;;4.65;3.47;;;;;;;18.40;nan;100489.41;4829767;29;20507;-81
2023/07/19 06:57:30;;;;;;;3.05;2.60;;;;;;;18.56;nan;100488.47;4787219;29;20051;-81
2023/07/19 06:59:58;;;;;;;3.97;2.85;;;;;;;18.61;nan;100488.22;4822102;29;20043;-80
2023/07/19 07:02:24;;;;;;;3.95;2.75;;;;;;;18.61;nan;100490.03;4812021;29;20049;-81
2023/07/19 07:04:52;;;;;;;4.15;2.70;;;;;;;18.76;nan;100490.06;4827784;29;20043;-81
2023/07/19 07:07:19;;;;;;;3.42;2.40;;;;;;;18.72;nan;100484.97;4810037;29;20057;-80
2023/07/19 07:09:46;;;;;;;3.45;2.70;;;;;;;18.73;nan;100479.53;4799598;29;20069;-80
2023/07/19 07:12:13;;;;;;;4.20;2.70;;;;;;;18.72;nan;100482.28;4819310;29;20047;-81
2023/07/19 07:14:40;;;;;;;2.97;2.60;;;;;;;18.88;nan;100485.81;4810128;29;20043;-81
2023/07/19 07:17:07;;;;;;;2.63;2.10;;;;;;;19.00;nan;100481.56;4808336;29;20042;-81
2023/07/19 07:19:35;;;;;;;3.22;2.25;;;;;;;18.95;nan;100484.53;4814707;29;20039;-81
2023/07/19 07:22:02;;;;;;;3.63;2.40;;;;;;;18.96;nan;100491.59;4801143;29;20066;-79
2023/07/19 07:24:29;;;;;;;3.97;2.03;;;;;;;19.13;nan;100490.63;4810661;29;20039;-80
2023/07/19 07:26:56;;;;;;;4.68;1.90;;;;;;;19.39;nan;100483.72;4786559;29;20043;-80
2023/07/19 07:29:23;;;;;;;4.60;2.00;;;;;;;19.34;nan;100491.19;4815516;29;20751;-80
2023/07/19 07:31:50;;;;;;;3.53;2.00;;;;;;;19.30;nan;100490.47;4804358;29;20053;-80
2023/07/19 07:34:17;;;;;;;3.38;2.08;;;;;;;19.34;nan;100491.19;4795209;29;20046;-80
2023/07/19 07:36:44;;;;;;;5.07;2.55;;;;;;;19.32;nan;100488.56;4801996;29;20050;-80
2023/07/19 07:39:11;;;;;;;3.58;1.90;;;;;;;19.48;nan;100482.28;4808487;29;20507;-79
2023/07/19 07:41:38;;;;;;;3.33;1.83;;;;;;;19.60;nan;100484.28;4818735;29;20059;-79
2023/07/19 07:44:09;;;;;;;2.42;1.65;;;;;;;19.56;nan;100486.28;4802992;29;20062;-80
2023/07/19 07:46:36;;;;;;;2.88;1.73;;;;;;;19.65;nan;100483.03;4817241;29;20042;-80
2023/07/19 07:49:04;;;;;;;4.57;2.15;;;;;;;19.59;nan;100477.16;4803284;29;20049;-80
2023/07/19 07:51:33;;;;;;;58.40;10.13;;;;;;;19.56;nan;100475.53;4803819;29;20046;-80
2023/07/19 07:54:00;;;;;;;12.07;3.22;;;;;;;19.56;nan;100474.66;4800811;29;20043;-79
2023/07/19 07:56:26;;;;;;;5.72;2.10;;;;;;;19.35;nan;100477.69;4811311;29;20058;-79
2023/07/19 07:58:53;;;;;;;6.38;1.92;;;;;;;19.54;nan;100472.06;4801842;29;20046;-79
2023/07/19 08:01:20;;;;;;;7.03;2.10;;;;;;;19.62;nan;100468.97;4802184;29;20051;-79
2023/07/19 08:03:48;;;;;;;3.58;1.80;;;;;;;19.68;nan;100464.09;4818397;29;20053;-80
2023/07/19 08:06:15;;;;;;;2.85;1.88;;;;;;;19.93;nan;100463.44;4826231;29;20515;-79
2023/07/19 08:08:42;;;;;;;6.82;2.20;;;;;;;19.92;nan;100461.69;4784058;29;20037;-79
2023/07/19 08:11:09;;;;;;;3.78;1.92;;;;;;;19.97;nan;100458.75;4813485;29;20054;-80
2023/07/19 08:13:36;;;;;;;4.22;1.80;;;;;;;20.08;nan;100466.97;4804885;29;20069;-80
2023/07/19 08:16:06;;;;;;;2.03;1.85;;;;;;;20.16;nan;100467.34;4802555;29;20043;-81
2023/07/19 08:18:34;;;;;;;2.00;1.40;;;;;;;20.43;nan;100464.78;4808425;29;20037;-79
2023/07/19 08:21:02;;;;;;;2.85;1.50;;;;;;;20.41;nan;100469.31;4802347;29;20051;-79
2023/07/19 08:23:29;;;;;;;3.35;2.25;;;;;;;20.45;nan;100464.66;4807882;29;20049;-80
2023/07/19 08:25:57;;;;;;;2.25;1.70;;;;;;;20.69;nan;100463.06;4802667;29;20039;-79
2023/07/19 08:28:24;;;;;;;3.13;1.67;;;;;;;20.88;nan;100470.78;4796868;29;20035;-80
2023/07/19 08:30:53;;;;;;;3.33;1.85;;;;;;;20.96;nan;100464.91;4804468;29;20042;-80
2023/07/19 08:33:21;;;;;;;4.93;1.88;;;;;;;20.91;nan;100465.19;4826513;29;20426;-80
2023/07/19 08:35:49;;;;;;;2.35;1.70;;;;;;;20.70;nan;100466.63;4798032;29;20045;-80
2023/07/19 08:38:17;;;;;;;2.00;1.60;;;;;;;20.84;nan;100454.94;4782553;29;20043;-80
2023/07/19 08:40:55;;;;;;;2.95;1.60;;;;;;;20.96;nan;100452.31;4823192;29;20045;-80
2023/07/19 08:43:27;;;;;;;2.03;1.58;;;;;;;21.11;nan;100458.50;4801961;29;20081;-80
2023/07/19 08:45:55;;;;;;;2.50;1.35;;;;;;;21.18;nan;100449.03;4800152;29;20047;-80
2023/07/19 08:48:22;;;;;;;2.45;1.75;;;;;;;21.24;nan;100455.81;4811223;29;20054;-80
2023/07/19 08:50:56;;;;;;;2.83;1.92;;;;;;;21.43;nan;100447.38;4801812;29;20057;-80
2023/07/19 08:53:25;;;;;;;4.25;2.00;;;;;;;21.59;nan;100450.75;4801902;29;20049;-80
2023/07/19 08:55:52;;;;;;;7.40;2.20;;;;;;;21.61;nan;100464.97;4797602;29;20789;-81
2023/07/19 08:58:20;;;;;;;4.47;1.67;;;;;;;21.69;nan;100457.19;4799707;29;20034;-80
2023/07/19 09:00:48;;;;;;;1.73;1.63;;;;;;;21.72;nan;100453.44;4801283;29;20042;-79
2023/07/19 09:03:16;;;;;;;3.38;1.50;;;;;;;21.69;nan;100461.72;4801962;29;20054;-79
2023/07/19 09:05:44;;;;;;;4.03;2.22;;;;;;;21.66;nan;100457.41;4811215;29;20046;-79
2023/07/19 09:08:14;;;;;;;3.38;1.50;;;;;;;21.66;nan;100464.63;4830963;29;20061;-80
2023/07/19 09:10:44;;;;;;;3.47;1.73;;;;;;;21.68;nan;100463.53;4825620;29;20058;-80
2023/07/19 09:13:11;;;;;;;3.55;1.58;;;;;;;21.69;nan;100465.25;4801478;29;20050;-79
2023/07/19 09:15:38;;;;;;;3.70;1.60;;;;;;;21.47;nan;100457.84;4814904;29;20061;-80
2023/07/19 09:18:06;;;;;;;3.15;2.20;;;;;;;21.56;nan;100459.03;4799282;29;20050;-79
2023/07/19 09:20:35;;;;;;;2.72;1.60;;;;;;;21.71;nan;100447.22;4805597;29;20407;-80
2023/07/19 09:23:05;;;;;;;3.72;1.83;;;;;;;22.01;nan;100454.06;4803882;29;20047;-79
2023/07/19 09:25:34;;;;;;;1.73;1.52;;;;;;;22.26;nan;100450.50;4804509;29;20054;-79
2023/07/19 09:28:07;;;;;;;2.17;1.50;;;;;;;22.55;nan;100441.19;4823772;29;20061;-80
2023/07/19 09:30:34;;;;;;;3.80;1.60;;;;;;;22.67;nan;100442.94;4795945;29;20045;-80
2023/07/19 09:33:01;;;;;;;3.25;1.40;;;;;;;22.88;nan;100450.44;4785261;29;20730;-80
2023/07/19 09:35:29;;;;;;;2.70;1.75;;;;;;;23.03;nan;100444.72;4801556;29;20113;-79
2023/07/19 09:37:56;;;;;;;3.17;1.60;;;;;;;23.02;nan;100443.03;4828485;29;20053;-81
2023/07/19 09:40:23;;;;;;;3.50;1.80;;;;;;;23.07;nan;100433.75;4811415;29;20076;-81
2023/07/19 09:42:50;;;;;;;3.97;1.77;;;;;;;23.13;nan;100433.28;4800152;29;20392;-80
2023/07/19 09:45:17;;;;;;;4.50;1.83;;;;;;;23.07;nan;100425.66;4769967;30;20059;-80
2023/07/19 09:47:48;;;;;;;3.80;1.77;;;;;;;23.42;nan;100428.34;4807049;29;20503;-80
2023/07/19 09:50:15;;;;;;;2.58;1.58;;;;;;;23.11;nan;100419.03;4806247;29;20038;-80
2023/07/19 09:52:42;;;;;;;2.72;1.92;;;;;;;23.13;nan;100420.66;4802410;29;20043;-80
2023/07/19 09:55:10;;;;;;;7.82;1.85;;;;;;;22.91;nan;100429.50;4787730;29;20053;-81
2023/07/19 09:57:39;;;;;;;30.05;4.55;;;;;;;22.70;nan;100428.38;4794675;29;20054;-81
2023/07/19 10:00:07;;;;;;;8.73;1.70;;;;;;;22.62;nan;100423.59;4804498;29;20042;-80
2023/07/19 10:02:34;;;;;;;2.75;1.30;;;;;;;22.70;nan;100415.81;4800089;29;20053;-80
2023/07/19 10:05:10;;;;;;;1.80;1.45;;;;;;;22.69;nan;100419.44;4829531;29;20057;-80
2023/07/19 10:07:37;;;;;;;3.15;1.52;;;;;;;22.56;nan;100421.34;4820609;29;20039;-82
2023/07/19 10:10:17;;;;;;;2.03;1.30;;;;;;;22.55;nan;100421.47;4800660;29;20035;-81
2023/07/19 10:12:47;;;;;;;30.55;5.25;;;;;;;22.39;nan;100425.28;4795778;29;20059;-80
2023/07/19 10:15:18;;;;;;;117.50;17.05;;;;;;;22.37;nan;100418.31;4830307;29;20053;-81
2023/07/19 10:17:54;;;;;;;13.20;2.83;;;;;;;22.31;nan;100422.31;4802428;29;20048;-80
2023/07/19 10:20:22;;;;;;;1.88;1.42;;;;;;;22.33;nan;100411.41;4800924;29;20430;-81
2023/07/19 10:22:53;;;;;;;4.00;1.85;;;;;;;22.48;nan;100404.91;4800383;29;20038;-81
2023/07/19 10:25:31;;;;;;;1.90;1.55;;;;;;;22.47;nan;100411.28;4788919;29;20035;-81
2023/07/19 10:28:07;;;;;;;3.17;1.70;;;;;;;22.62;nan;100409.28;4798423;29;20081;-79
2023/07/19 10:30:44;;;;;;;2.60;1.60;;;;;;;22.58;nan;100411.31;4793939;29;20043;-80
2023/07/19 10:33:14;;;;;;;2.40;1.60;;;;;;;22.59;nan;100410.34;4799928;29;20059;-80
2023/07/19 10:35:42;;;;;;;1.80;1.50;;;;;;;22.56;nan;100407.03;4825453;29;20495;-80
2023/07/19 10:38:23;;;;;;;3.22;1.80;;;;;;;22.70;nan;100409.53;4796185;29;20043;-80
2023/07/19 10:40:57;;;;;;;2.30;1.33;;;;;;;22.74;nan;100401.13;4815233;29;20039;-80
2023/07/19 10:43:26;;;;;;;2.92;1.65;;;;;;;22.76;nan;100399.16;4798422;29;20039;-81
2023/07/19 10:46:12;;;;;;;3.53;1.55;;;;;;;22.65;nan;100398.28;4807041;29;20058;-80
2023/07/19 10:48:59;;;;;;;1.90;1.63;;;;;;;22.84;nan;100398.59;4785376;29;20053;-81
2023/07/19 10:51:26;;;;;;;3.65;1.40;;;;;;;22.99;nan;100393.91;4795468;29;20050;-81
2023/07/19 10:53:59;;;;;;;2.38;1.55;;;;;;;23.16;nan;100398.88;4797901;29;20068;-82
2023/07/19 10:56:27;;;;;;;2.70;1.50;;;;;;;23.42;nan;100402.22;4798710;29;20049;-81
2023/07/19 10:58:58;;;;;;;2.40;1.60;;;;;;;23.47;nan;100396.50;4802318;29;20069;-80
2023/07/19 11:01:29;;;;;;;2.47;1.60;;;;;;;23.63;nan;100398.84;4816220;29;20042;-81
2023/07/19 11:04:04;;;;;;;3.05;1.85;;;;;;;23.79;nan;100408.28;4789922;29;20047;-81
2023/07/19 11:06:33;;;;;;;1.75;1.33;;;;;;;23.54;nan;100406.69;4804300;29;20670;-80
2023/07/19 11:09:04;;;;;;;2.38;1.90;;;;;;;23.52;nan;100410.44;4829485;29;20077;-80
2023/07/19 11:11:34;;;;;;;1.92;1.73;;;;;;;23.38;nan;100403.47;4804791;29;20050;-80
2023/07/19 11:14:01;;;;;;;1.95;1.52;;;;;;;23.18;nan;100402.28;4797709;29;20050;-81
2023/07/19 11:16:29;;;;;;;3.80;2.08;;;;;;;22.95;nan;100398.69;4830750;29;20035;-81
2023/07/19 11:18:56;;;;;;;2.10;1.55;;;;;;;22.99;nan;100400.16;4802348;29;20053;-81
2023/07/19 11:21:28;;;;;;;4.30;1.63;;;;;;;23.01;nan;100400.88;4803832;29;20051;-81
2023/07/19 11:23:55;;;;;;;2.63;1.70;;;;;;;22.98;nan;100405.66;4804648;29;20047;-80
2023/07/19 11:26:22;;;;;;;1.63;1.38;;;;;;;22.96;nan;100416.56;4800570;29;20057;-81
2023/07/19 11:28:53;;;;;;;3.83;1.73;;;;;;;23.03;nan;100414.25;4788990;29;20046;-80
2023/07/19 11:31:28;;;;;;;48.00;8.07;;;;;;;22.93;nan;100415.91;4788456;29;20039;-79
2023/07/19 11:34:13;;;;;;;6.00;2.67;;;;;;;22.94;nan;100412.25;4781160;29;20042;-80
2023/07/19 11:36:42;;;;;;;7.32;2.20;;;;;;;22.83;nan;100410.34;4829059;29;20049;-80
2023/07/19 11:39:16;;;;;;;2.00;1.70;;;;;;;22.63;nan;100402.91;4823876;29;20043;-80
2023/07/19 11:41:48;;;;;;;3.10;1.73;;;;;;;22.78;nan;100404.44;4801351;29;20069;-80
2023/07/19 11:44:17;;;;;;;2.95;1.98;;;;;;;22.99;nan;100400.16;4806647;29;20043;-80
2023/07/19 11:46:45;;;;;;;4.68;1.80;;;;;;;23.30;nan;100400.50;4828821;29;20684;-80